Leadville, CO

6:24 PM MDT on August 20, 2014 (GMT -0600)
Lake County | Change Station
CLOSE
Current Station
Airport
Location: Leadville,
Elevation: 9928 ft
Nearby Weather Stations

Elev 9928 ft 39.23 °N, 106.32 °W | Updated 31 minutes ago

Scattered Clouds
Scattered Clouds
65 °F
Feels Like 65 °F
N
12
Wind Variable Wind from WNW

Today
High -- | Low -- °F
--% Chance of Precip.
Yesterday
High -- | Low -- °F
Precip. -- in
6:22 AM 7:53 PM
Waning Crescent, 18% visible
Pressure 29.77 in
Visibility 10.0 miles
Clouds Scattered Clouds 10000 ft
Dew Point 38 °F
Humidity 37%
Rainfall 0.01 in
Snow Depth 177 in , 0 in
UV 2 out of 12
Pollen 9.60 out of 12
Air Quality Not available.
Flu Activity Not available.
METAR KLXV 202353Z AUTO 30010KT 10SM SCT100 18/03 A3028 RMK AO2 LTG DSNT NE SLP079 T01830033 10189 20150 55002

More Conditions Fewer Conditions

Pressure 29.77 in
Visibility 10.0 miles
Clouds Scattered Clouds 10000 ft
Dew Point 38 °F
Humidity 37%
Rainfall 0.01 in
Snow Depth 177 in , 0 in
UV 2 out of 12
Pollen 9.60 out of 12
Air Quality Not available.
Flu Activity Not available.
METAR KLXV 202353Z AUTO 30010KT 10SM SCT100 18/03 A3028 RMK AO2 LTG DSNT NE SLP079 T01830033 10189 20150 55002

More Conditions Fewer Conditions

10-Day Weather Forecast

Almanac

Astronomy

Aug. 20, 2014 Rise Set
Actual Time 6:22 AM MDT 7:53 PM MDT
Civil Twilight 5:54 AM MDT 8:21 PM MDT
Nautical Twilight 5:20 AM MDT 8:55 PM MDT
Astronomical Twilight 4:44 AM MDT 9:31 PM MDT
Moon 2:05 AM MDT (8/20) 4:39 PM MDT (8/20)
Length of Visible Light 14h 27m
Length of Day
13h 30m
Tomorrow will be 2m 20s shorter.
Waning Crescent, 18% of the Moon is Illuminated
Today
Waning Crescent
Aug 25
New
Sep 2
First Quarter
Sep 8
Full
Sep 15
Last Quarter

Today's Extremes

State Highs State Lows

Community

WunderPhotos

Upload Photos

1,745,807 photos uploaded!

WunderBlogs® & News

Nearby

Snow Depth

Station Depth Elevation
Fremont Pass 177 in 11400 ft
Ivanhoe 0 in 10400 ft
Rough And Tumble 0 in 10360 ft
Mccoy Park 9 in 9480 ft
Independence Pass 190 in 10600 ft

Earthquake Activity

City Distance Mag. Time & Date
No recent earthquake activity has been reported nearby.
Minimum magnitude displayed is 2.5.

Coastal Water Temperatures

Place Temperature
No Stations Reporting

Nearby Weather Stations